createdAt,value
2019-06-26T00:01:47.939Z,11.20
2019-06-26T00:04:17.723Z,11.20
2019-06-26T00:06:47.491Z,11.10
2019-06-26T00:09:17.271Z,11.20
2019-06-26T00:11:46.983Z,11.20
2019-06-26T00:14:16.660Z,11.20
2019-06-26T00:16:46.448Z,11.20
2019-06-26T00:19:16.167Z,11.20
2019-06-26T00:21:45.907Z,11.30
2019-06-26T00:24:15.598Z,11.30
2019-06-26T00:26:45.313Z,11.20
2019-06-26T00:29:15.046Z,11.20
2019-06-26T00:31:44.786Z,11.20
2019-06-26T00:34:15.647Z,11.10
2019-06-26T00:36:45.423Z,11.10
2019-06-26T00:39:15.225Z,11.10
2019-06-26T00:41:44.940Z,11.10
2019-06-26T00:44:15.635Z,11.10
2019-06-26T00:46:45.443Z,11.10
2019-06-26T00:49:15.096Z,11.10
2019-06-26T00:51:44.911Z,11.10
2019-06-26T00:54:14.587Z,11.10
2019-06-26T00:56:44.304Z,11.10
2019-06-26T00:59:14.027Z,11.00
2019-06-26T01:01:43.779Z,11.10
2019-06-26T01:04:15.118Z,11.10
2019-06-26T01:06:44.822Z,11.00
2019-06-26T01:09:15.164Z,11.00
2019-06-26T01:11:44.864Z,11.00
2019-06-26T01:14:14.582Z,11.00
2019-06-26T01:16:44.266Z,11.00
2019-06-26T01:19:13.977Z,11.00
2019-06-26T01:21:43.696Z,11.00
2019-06-26T01:24:13.363Z,11.00
2019-06-26T01:26:43.151Z,11.00
2019-06-26T01:29:13.842Z,11.00
2019-06-26T01:31:44.746Z,10.90
2019-06-26T01:34:14.438Z,11.00
2019-06-26T01:36:44.160Z,11.00
2019-06-26T01:39:13.927Z,11.00
2019-06-26T01:41:43.644Z,10.80
2019-06-26T01:44:15.406Z,10.80
2019-06-26T01:46:44.676Z,10.80
2019-06-26T01:49:14.402Z,10.80
2019-06-26T01:51:44.169Z,10.80
2019-06-26T01:54:13.908Z,10.80
2019-06-26T01:56:43.594Z,10.80
2019-06-26T01:59:13.265Z,10.80
2019-06-26T02:01:42.981Z,10.80
2019-06-26T02:04:15.473Z,10.80
2019-06-26T02:06:44.034Z,10.80
2019-06-26T02:09:13.705Z,10.70
2019-06-26T02:11:43.522Z,10.70
2019-06-26T02:14:13.238Z,10.80
2019-06-26T02:16:42.925Z,10.80
2019-06-26T02:19:14.263Z,10.80
2019-06-26T02:21:45.544Z,10.70
2019-06-26T02:24:15.248Z,10.70
2019-06-26T02:26:45.033Z,10.70
2019-06-26T02:29:14.720Z,10.70
2019-06-26T02:31:44.459Z,10.70
2019-06-26T02:34:14.139Z,10.70
2019-06-26T02:36:44.025Z,10.70
2019-06-26T02:39:13.774Z,10.70
2019-06-26T02:41:43.415Z,10.70
2019-06-26T02:44:13.095Z,10.60
2019-06-26T02:46:42.798Z,10.70
2019-06-26T02:49:12.560Z,10.60
2019-06-26T02:51:42.331Z,10.70
2019-06-26T02:54:12.054Z,10.70
2019-06-26T02:56:41.730Z,10.70
2019-06-26T02:59:11.506Z,10.60
2019-06-26T03:01:41.243Z,10.60
2019-06-26T03:04:10.909Z,10.70
2019-06-26T03:06:40.631Z,10.70
2019-06-26T03:09:10.416Z,10.60
2019-06-26T03:11:40.159Z,10.60
2019-06-26T03:14:11.049Z,10.70
2019-06-26T03:16:40.719Z,10.70
2019-06-26T03:19:10.426Z,10.70
2019-06-26T03:21:40.120Z,10.60
2019-06-26T03:24:09.833Z,10.60
2019-06-26T03:26:39.534Z,10.70
2019-06-26T03:29:09.279Z,10.60
2019-06-26T03:31:38.983Z,10.60
2019-06-26T03:34:08.666Z,10.60
2019-06-26T03:36:38.387Z,10.60
2019-06-26T03:39:08.780Z,10.60
2019-06-26T03:41:38.482Z,10.60
2019-06-26T03:44:09.220Z,10.60
2019-06-26T03:46:38.909Z,10.60
2019-06-26T03:49:08.635Z,10.60
2019-06-26T03:51:38.481Z,10.60
2019-06-26T03:54:08.144Z,10.60
2019-06-26T03:56:37.923Z,10.70
2019-06-26T03:59:07.630Z,10.70
2019-06-26T04:01:37.347Z,10.60
2019-06-26T04:04:07.998Z,10.70
2019-06-26T04:06:37.786Z,10.70
2019-06-26T04:09:07.673Z,10.60
2019-06-26T04:11:37.390Z,10.60
2019-06-26T04:14:07.104Z,10.60
2019-06-26T04:16:36.851Z,10.60
2019-06-26T04:19:06.852Z,10.70
2019-06-26T04:21:36.551Z,10.70
2019-06-26T04:24:06.349Z,10.70
2019-06-26T04:26:36.079Z,10.70
2019-06-26T04:29:05.785Z,10.60
2019-06-26T04:31:35.478Z,10.70
2019-06-26T04:34:05.253Z,10.60
2019-06-26T04:36:35.044Z,10.70
2019-06-26T04:39:06.743Z,10.70
2019-06-26T04:41:36.500Z,10.70
2019-06-26T04:44:06.343Z,10.80
2019-06-26T04:46:36.040Z,10.80
2019-06-26T04:49:05.828Z,10.80
2019-06-26T04:51:35.520Z,10.80
2019-06-26T04:54:05.211Z,10.80
2019-06-26T04:56:34.917Z,10.90
2019-06-26T04:59:04.617Z,11.00
2019-06-26T05:01:34.401Z,11.00
2019-06-26T05:04:04.091Z,11.00
2019-06-26T05:06:33.821Z,11.10
2019-06-26T05:09:04.606Z,11.10
2019-06-26T05:11:35.533Z,11.10
2019-06-26T05:14:05.403Z,11.10
2019-06-26T05:16:35.098Z,11.10
2019-06-26T05:19:04.923Z,11.10
2019-06-26T05:21:34.659Z,11.10
2019-06-26T05:24:04.418Z,11.10
2019-06-26T05:26:34.296Z,11.20
2019-06-26T05:29:04.008Z,11.20
2019-06-26T05:31:33.729Z,11.30
2019-06-26T05:34:03.448Z,11.20
2019-06-26T05:36:33.238Z,11.20
2019-06-26T05:39:03.078Z,11.30
2019-06-26T05:41:32.841Z,11.30
2019-06-26T05:44:03.155Z,11.30
2019-06-26T05:46:32.875Z,11.30
2019-06-26T05:49:02.650Z,11.30
2019-06-26T05:51:32.396Z,11.20
2019-06-26T05:54:02.172Z,11.20
2019-06-26T05:56:31.861Z,11.20
2019-06-26T05:59:01.531Z,11.20
2019-06-26T06:01:31.261Z,11.20
2019-06-26T06:04:00.957Z,11.20
2019-06-26T06:06:40.993Z,11.20
2019-06-26T06:09:02.247Z,11.20
2019-06-26T06:11:33.746Z,11.30
2019-06-26T06:14:03.559Z,11.20
2019-06-26T06:16:46.452Z,11.30
2019-06-26T06:19:04.529Z,11.20
2019-06-26T06:21:34.335Z,11.20
2019-06-26T06:24:05.037Z,11.20
2019-06-26T06:26:34.811Z,11.30
2019-06-26T06:29:04.989Z,11.40
2019-06-26T06:31:34.762Z,11.30
2019-06-26T06:34:04.499Z,11.40
2019-06-26T06:36:34.175Z,11.40
2019-06-26T06:39:06.621Z,11.40
2019-06-26T06:41:36.317Z,11.50
2019-06-26T06:44:06.014Z,11.50
2019-06-26T06:46:35.712Z,11.50
2019-06-26T06:49:05.506Z,11.50
2019-06-26T06:51:35.266Z,11.60
2019-06-26T06:54:05.079Z,11.60
2019-06-26T06:56:34.892Z,11.70
2019-06-26T06:59:04.642Z,11.50
2019-06-26T07:01:34.418Z,11.50
2019-06-26T07:04:05.691Z,11.50
2019-06-26T07:06:35.403Z,11.60
2019-06-26T07:09:08.738Z,11.60
2019-06-26T07:11:38.591Z,11.60
2019-06-26T07:14:08.347Z,11.70
2019-06-26T07:16:38.079Z,11.70
2019-06-26T07:19:07.782Z,11.60
2019-06-26T07:21:37.550Z,11.60
2019-06-26T07:24:07.272Z,11.60
2019-06-26T07:26:37.126Z,11.70
2019-06-26T07:29:06.830Z,11.80
2019-06-26T07:31:38.572Z,11.90
2019-06-26T07:34:07.950Z,11.90
2019-06-26T07:36:37.765Z,12.00
2019-06-26T07:39:07.553Z,12.10
2019-06-26T07:41:37.373Z,12.30
2019-06-26T07:44:07.148Z,12.30
2019-06-26T07:46:37.016Z,12.30
2019-06-26T07:49:06.719Z,12.20
2019-06-26T07:51:36.495Z,12.20
2019-06-26T07:54:06.254Z,12.20
2019-06-26T07:56:35.971Z,12.10
2019-06-26T07:59:05.694Z,12.20
2019-06-26T08:01:35.419Z,12.30
2019-06-26T08:04:05.193Z,12.20
2019-06-26T08:06:34.913Z,12.10
2019-06-26T08:09:05.781Z,12.00
2019-06-26T08:11:35.521Z,12.00
2019-06-26T08:14:05.327Z,11.90
2019-06-26T08:16:35.053Z,12.00
2019-06-26T08:19:17.214Z,12.00
2019-06-26T08:21:47.039Z,12.00
2019-06-26T08:24:16.969Z,12.10
2019-06-26T08:26:46.719Z,12.10
2019-06-26T08:29:16.509Z,12.20
2019-06-26T08:31:46.285Z,12.40
2019-06-26T08:34:16.049Z,12.40
2019-06-26T08:36:45.761Z,12.40
2019-06-26T08:39:15.509Z,12.50
2019-06-26T08:41:45.239Z,12.60
2019-06-26T08:44:14.944Z,12.60
2019-06-26T08:46:44.650Z,12.60
2019-06-26T08:49:25.007Z,12.60
2019-06-26T08:51:45.748Z,12.60
2019-06-26T08:54:15.437Z,12.70
2019-06-26T08:56:45.256Z,12.70
2019-06-26T08:59:15.537Z,12.80
2019-06-26T09:01:45.361Z,12.90
2019-06-26T09:04:15.229Z,13.00
2019-06-26T09:06:44.999Z,13.10
2019-06-26T09:09:14.775Z,13.10
2019-06-26T09:11:44.531Z,13.00
2019-06-26T09:14:14.277Z,13.00
2019-06-26T09:16:44.939Z,13.10
2019-06-26T09:19:14.652Z,13.10
2019-06-26T09:21:44.404Z,13.10
2019-06-26T09:24:15.394Z,13.00
2019-06-26T09:26:45.375Z,13.00
2019-06-26T09:29:15.498Z,13.00
2019-06-26T09:31:45.412Z,13.00
2019-06-26T09:34:15.183Z,13.10
2019-06-26T09:36:45.118Z,13.00
2019-06-26T09:39:14.893Z,13.20
2019-06-26T09:41:44.662Z,13.30
2019-06-26T09:44:14.455Z,13.30
2019-06-26T09:46:44.236Z,13.50
2019-06-26T09:49:14.014Z,13.50
2019-06-26T09:51:44.716Z,13.30
2019-06-26T09:54:14.530Z,13.30
2019-06-26T09:56:45.480Z,13.50
2019-06-26T09:59:15.305Z,13.70
2019-06-26T10:01:47.707Z,13.80
2019-06-26T10:04:17.541Z,14.00
2019-06-26T10:06:47.475Z,14.00
2019-06-26T10:09:18.742Z,14.10
2019-06-26T10:11:48.545Z,14.00
2019-06-26T10:14:18.301Z,14.10
2019-06-26T10:16:48.086Z,14.30
2019-06-26T10:19:17.775Z,14.20
2019-06-26T10:21:47.501Z,13.90
2019-06-26T10:24:17.215Z,13.90
2019-06-26T10:26:46.926Z,14.10
2019-06-26T10:29:16.639Z,14.20
2019-06-26T10:31:46.344Z,14.20
2019-06-26T10:34:16.084Z,14.20
2019-06-26T10:36:45.797Z,14.20
2019-06-26T10:39:15.503Z,14.20
2019-06-26T10:41:45.232Z,14.30
2019-06-26T10:44:14.966Z,14.20
2019-06-26T10:46:44.649Z,14.30
2019-06-26T10:49:26.603Z,14.30
2019-06-26T10:51:45.806Z,14.30
2019-06-26T10:54:15.500Z,14.50
2019-06-26T10:56:45.213Z,14.60
2019-06-26T10:59:14.918Z,14.50
2019-06-26T11:01:44.688Z,14.70
2019-06-26T11:04:15.449Z,14.70
2019-06-26T11:06:45.178Z,14.70
2019-06-26T11:09:14.892Z,14.80
2019-06-26T11:11:44.579Z,15.00
2019-06-26T11:14:14.265Z,14.90
2019-06-26T11:16:43.993Z,15.00
2019-06-26T11:19:13.671Z,15.00
2019-06-26T11:21:43.353Z,14.80
2019-06-26T11:24:13.058Z,14.90
2019-06-26T11:26:42.778Z,14.80
2019-06-26T11:29:12.514Z,14.90
2019-06-26T11:31:42.277Z,14.90
2019-06-26T11:34:13.047Z,14.90
2019-06-26T11:36:42.769Z,14.90
2019-06-26T11:39:12.504Z,14.90
2019-06-26T11:41:42.272Z,14.90
2019-06-26T11:44:11.965Z,14.90
2019-06-26T11:46:41.722Z,15.00
2019-06-26T11:49:11.390Z,14.80
2019-06-26T11:51:41.109Z,14.60
2019-06-26T11:54:10.890Z,14.70
2019-06-26T11:56:40.600Z,14.60
2019-06-26T11:59:10.342Z,14.90
2019-06-26T12:01:40.139Z,15.10
2019-06-26T12:04:09.914Z,15.20
2019-06-26T12:06:39.710Z,15.20
2019-06-26T12:09:10.668Z,15.20
2019-06-26T12:11:40.477Z,15.30
2019-06-26T12:14:10.266Z,15.40
2019-06-26T12:16:39.972Z,15.30
2019-06-26T12:19:09.707Z,15.40
2019-06-26T12:21:39.399Z,15.50
2019-06-26T12:24:09.131Z,15.60
2019-06-26T12:26:38.950Z,15.70
2019-06-26T12:29:08.618Z,15.60
2019-06-26T12:31:38.328Z,15.40
2019-06-26T12:34:08.110Z,15.40
2019-06-26T12:36:37.809Z,15.40
2019-06-26T12:39:08.261Z,15.50
2019-06-26T12:41:37.972Z,15.50
2019-06-26T12:44:07.766Z,15.50
2019-06-26T12:46:37.584Z,15.60
2019-06-26T12:49:07.308Z,15.60
2019-06-26T12:51:37.081Z,15.60
2019-06-26T12:54:06.843Z,15.80
2019-06-26T12:56:37.632Z,15.90
2019-06-26T12:59:07.353Z,15.90
2019-06-26T13:01:37.117Z,15.90
2019-06-26T13:04:06.795Z,16.00
2019-06-26T13:06:36.538Z,16.10
2019-06-26T13:09:08.143Z,16.10
2019-06-26T13:11:37.817Z,16.10
2019-06-26T13:14:07.603Z,16.10
2019-06-26T13:16:37.283Z,16.10
2019-06-26T13:19:07.007Z,16.20
2019-06-26T13:21:36.711Z,16.40
2019-06-26T13:24:06.438Z,16.30
2019-06-26T13:26:36.101Z,16.30
2019-06-26T13:29:08.813Z,16.30
2019-06-26T13:31:37.207Z,16.40
2019-06-26T13:34:06.891Z,16.40
2019-06-26T13:36:36.629Z,16.40
2019-06-26T13:39:07.307Z,16.50
2019-06-26T13:41:37.044Z,16.60
2019-06-26T13:44:06.811Z,16.70
2019-06-26T13:46:36.513Z,16.80
2019-06-26T13:49:06.304Z,16.80
2019-06-26T13:51:36.198Z,16.90
2019-06-26T13:54:07.229Z,16.90
2019-06-26T13:56:36.930Z,17.00
2019-06-26T13:59:07.600Z,17.10
2019-06-26T14:01:37.507Z,17.20
2019-06-26T14:04:07.219Z,17.20
2019-06-26T14:06:36.978Z,17.20
2019-06-26T14:09:08.070Z,17.30
2019-06-26T14:11:37.748Z,17.40
2019-06-26T14:14:07.553Z,17.40
2019-06-26T14:16:37.323Z,17.50
2019-06-26T14:19:07.109Z,17.60
2019-06-26T14:21:36.817Z,17.70
2019-06-26T14:24:06.521Z,17.70
2019-06-26T14:26:36.234Z,17.70
2019-06-26T14:29:19.995Z,17.80
2019-06-26T14:31:37.312Z,17.70
2019-06-26T14:34:07.017Z,17.80
2019-06-26T14:36:36.796Z,17.80
2019-06-26T14:39:07.594Z,17.90
2019-06-26T14:41:39.183Z,18.00
2019-06-26T14:44:09.075Z,18.00
2019-06-26T14:46:38.847Z,18.10
2019-06-26T14:49:08.605Z,18.10
2019-06-26T14:51:46.821Z,18.30
2019-06-26T14:54:09.780Z,18.20
2019-06-26T14:56:39.485Z,18.10
2019-06-26T14:59:09.297Z,18.40
2019-06-26T15:01:39.010Z,18.50
2019-06-26T15:04:08.722Z,18.50
2019-06-26T15:06:38.513Z,18.70
2019-06-26T15:09:08.218Z,18.50
2019-06-26T15:11:37.949Z,18.50
2019-06-26T15:14:07.635Z,18.50
2019-06-26T15:16:37.360Z,18.50
2019-06-26T15:19:07.133Z,18.40
2019-06-26T15:21:36.919Z,18.50
2019-06-26T15:24:06.710Z,18.70
2019-06-26T15:26:36.517Z,18.80
2019-06-26T15:29:06.230Z,18.80
2019-06-26T15:31:36.055Z,18.70
2019-06-26T15:34:05.817Z,18.70
2019-06-26T15:36:35.529Z,18.90
2019-06-26T15:39:07.397Z,18.90
2019-06-26T15:41:37.106Z,18.80
2019-06-26T15:44:06.908Z,18.80
2019-06-26T15:46:36.608Z,18.80
2019-06-26T15:49:06.345Z,18.30
2019-06-26T15:51:36.027Z,18.20
2019-06-26T15:54:05.730Z,18.40
2019-06-26T15:56:35.438Z,18.60
2019-06-26T15:59:05.273Z,18.60
2019-06-26T16:01:35.008Z,18.40
2019-06-26T16:04:04.784Z,18.50
2019-06-26T16:06:34.596Z,18.50
2019-06-26T16:09:05.704Z,18.50
2019-06-26T16:11:35.494Z,18.30
2019-06-26T16:14:05.394Z,18.50
2019-06-26T16:16:36.717Z,18.60
2019-06-26T16:19:17.264Z,18.60
2019-06-26T16:21:47.053Z,18.60
2019-06-26T16:24:16.794Z,18.70
2019-06-26T16:26:46.807Z,18.40
2019-06-26T16:29:16.565Z,18.30
2019-06-26T16:31:46.247Z,18.60
2019-06-26T16:34:16.035Z,18.50
2019-06-26T16:36:45.737Z,18.80
2019-06-26T16:39:15.495Z,18.60
2019-06-26T16:41:48.864Z,18.50
2019-06-26T16:44:16.746Z,18.40
2019-06-26T16:46:46.551Z,18.30
2019-06-26T16:49:16.255Z,18.30
2019-06-26T16:51:45.961Z,18.40
2019-06-26T16:54:15.731Z,18.40
2019-06-26T16:56:45.414Z,18.30
2019-06-26T16:59:15.197Z,18.30
2019-06-26T17:01:44.880Z,17.90
2019-06-26T17:04:14.577Z,17.90
2019-06-26T17:06:44.280Z,18.20
2019-06-26T17:09:14.004Z,18.20
2019-06-26T17:11:43.809Z,18.20
2019-06-26T17:14:13.495Z,18.30
2019-06-26T17:16:43.207Z,18.20
2019-06-26T17:19:12.929Z,18.20
2019-06-26T17:21:42.634Z,18.10
2019-06-26T17:24:12.424Z,18.40
2019-06-26T17:26:42.194Z,18.50
2019-06-26T17:29:12.216Z,18.40
2019-06-26T17:31:41.912Z,18.60
2019-06-26T17:34:11.694Z,18.50
2019-06-26T17:36:41.496Z,18.50
2019-06-26T17:39:11.207Z,18.30
2019-06-26T17:41:43.994Z,18.40
2019-06-26T17:44:12.326Z,18.40
2019-06-26T17:46:42.016Z,18.40
2019-06-26T17:49:11.801Z,18.40
2019-06-26T17:51:41.509Z,18.60
2019-06-26T17:54:11.317Z,18.60
2019-06-26T17:56:41.089Z,18.60
2019-06-26T17:59:10.987Z,18.50
2019-06-26T18:01:40.698Z,18.50
2019-06-26T18:04:10.422Z,18.60
2019-06-26T18:06:40.174Z,18.80
2019-06-26T18:09:12.353Z,18.90
2019-06-26T18:11:41.475Z,18.80
2019-06-26T18:14:11.164Z,18.80
2019-06-26T18:16:40.957Z,19.10
2019-06-26T18:19:10.712Z,19.30
2019-06-26T18:21:40.408Z,19.20
2019-06-26T18:24:10.256Z,19.30
2019-06-26T18:26:39.995Z,19.50
2019-06-26T18:29:09.729Z,19.50
2019-06-26T18:31:39.411Z,19.70
2019-06-26T18:34:09.128Z,19.70
2019-06-26T18:36:38.820Z,19.60
2019-06-26T18:39:09.452Z,19.30
2019-06-26T18:41:39.235Z,19.30
2019-06-26T18:44:08.951Z,19.40
2019-06-26T18:46:38.686Z,19.40
2019-06-26T18:49:08.447Z,19.40
2019-06-26T18:51:38.222Z,19.30
2019-06-26T18:54:07.934Z,19.50
2019-06-26T18:56:37.720Z,19.20
2019-06-26T18:59:07.410Z,18.60
2019-06-26T19:01:37.137Z,18.60
2019-06-26T19:04:06.822Z,18.60
2019-06-26T19:06:36.731Z,18.30
2019-06-26T19:09:07.995Z,18.20
2019-06-26T19:11:37.764Z,18.30
2019-06-26T19:14:08.539Z,18.20
2019-06-26T19:16:38.239Z,18.20
2019-06-26T19:19:08.099Z,18.20
2019-06-26T19:21:40.787Z,18.10
2019-06-26T19:24:10.889Z,18.00
2019-06-26T19:26:40.793Z,18.00
2019-06-26T19:29:10.478Z,18.10
2019-06-26T19:31:41.225Z,18.00
2019-06-26T19:34:10.887Z,18.00
2019-06-26T19:36:50.114Z,17.90
2019-06-26T19:39:12.045Z,17.80
2019-06-26T19:41:41.697Z,17.80
2019-06-26T19:44:11.471Z,17.90
2019-06-26T19:46:42.107Z,17.80
2019-06-26T19:49:12.027Z,17.80
2019-06-26T19:51:41.800Z,17.90
2019-06-26T19:54:26.125Z,17.90
2019-06-26T19:56:42.882Z,17.80
2019-06-26T19:59:12.496Z,17.90
2019-06-26T20:01:42.207Z,17.80
2019-06-26T20:04:11.891Z,17.80
2019-06-26T20:06:42.685Z,17.80
2019-06-26T20:09:12.381Z,17.80
2019-06-26T20:11:42.107Z,17.70
2019-06-26T20:14:11.811Z,17.60
2019-06-26T20:16:41.534Z,17.60
2019-06-26T20:19:11.241Z,17.60
2019-06-26T20:21:40.988Z,17.50
2019-06-26T20:24:10.708Z,17.50
2019-06-26T20:26:40.554Z,17.40
2019-06-26T20:29:10.388Z,17.50
2019-06-26T20:31:40.059Z,17.30
2019-06-26T20:34:09.738Z,17.30
2019-06-26T20:36:39.526Z,17.30
2019-06-26T20:39:09.190Z,17.20
2019-06-26T20:41:38.909Z,17.20
2019-06-26T20:44:08.590Z,17.20
2019-06-26T20:46:38.675Z,17.10
2019-06-26T20:49:08.490Z,17.10
2019-06-26T20:51:38.289Z,17.10
2019-06-26T20:54:07.991Z,17.00
2019-06-26T20:56:37.940Z,16.90
2019-06-26T20:59:08.339Z,16.90
2019-06-26T21:01:38.057Z,16.90
2019-06-26T21:04:07.796Z,16.80
2019-06-26T21:06:37.529Z,16.80
2019-06-26T21:09:07.318Z,16.80
2019-06-26T21:11:37.300Z,16.70
2019-06-26T21:14:07.041Z,16.70
2019-06-26T21:16:36.736Z,16.70
2019-06-26T21:19:06.440Z,16.60
2019-06-26T21:21:36.131Z,16.60
2019-06-26T21:24:05.855Z,16.60
2019-06-26T21:26:35.655Z,16.40
2019-06-26T21:29:05.500Z,16.40
2019-06-26T21:31:35.233Z,16.30
2019-06-26T21:34:04.942Z,16.20
2019-06-26T21:36:34.646Z,16.10
2019-06-26T21:39:05.919Z,16.20
2019-06-26T21:41:35.806Z,16.10
2019-06-26T21:44:05.523Z,16.10
2019-06-26T21:46:35.240Z,16.00
2019-06-26T21:49:05.064Z,16.00
2019-06-26T21:51:34.788Z,16.00
2019-06-26T21:54:04.477Z,16.00
2019-06-26T21:56:52.321Z,15.90
2019-06-26T21:59:43.048Z,15.90
2019-06-26T22:02:33.563Z,15.90
2019-06-26T22:05:04.570Z,15.70
2019-06-26T22:07:35.960Z,15.80
2019-06-26T22:10:25.583Z,15.80
2019-06-26T22:12:56.856Z,15.80
2019-06-26T22:15:26.683Z,15.80
2019-06-26T22:17:56.775Z,15.80
2019-06-26T22:20:26.569Z,15.80
2019-06-26T22:22:56.345Z,15.70
2019-06-26T22:25:26.670Z,15.70
2019-06-26T22:27:56.461Z,15.70
2019-06-26T22:30:26.464Z,15.70
2019-06-26T22:32:56.238Z,15.70
2019-06-26T22:35:25.960Z,15.70
2019-06-26T22:37:55.669Z,15.60
2019-06-26T22:40:25.425Z,15.50
2019-06-26T22:42:55.197Z,15.50
2019-06-26T22:45:25.051Z,15.40
2019-06-26T22:47:54.872Z,15.30
2019-06-26T22:50:24.631Z,15.30
2019-06-26T22:52:54.399Z,15.10
2019-06-26T22:55:24.093Z,15.00
2019-06-26T22:57:55.902Z,14.90
2019-06-26T23:00:25.653Z,14.90
2019-06-26T23:02:55.501Z,14.90
2019-06-26T23:05:25.200Z,15.00
2019-06-26T23:07:54.911Z,15.00
2019-06-26T23:10:25.717Z,14.90
2019-06-26T23:12:55.541Z,14.80
2019-06-26T23:15:25.264Z,14.70
2019-06-26T23:17:55.735Z,14.70
2019-06-26T23:20:25.640Z,14.60
2019-06-26T23:22:55.425Z,14.60
2019-06-26T23:25:25.145Z,14.50
2019-06-26T23:27:54.905Z,14.50
2019-06-26T23:30:24.550Z,14.50
2019-06-26T23:32:54.341Z,14.40
2019-06-26T23:35:24.026Z,14.40
2019-06-26T23:37:53.742Z,14.30
2019-06-26T23:40:23.495Z,14.20
2019-06-26T23:42:53.206Z,14.20
2019-06-26T23:45:23.047Z,14.30
2019-06-26T23:47:52.754Z,14.40
2019-06-26T23:50:22.469Z,14.40
2019-06-26T23:52:52.226Z,14.40
2019-06-26T23:55:21.949Z,14.40
2019-06-26T23:57:58.968Z,14.30
